Time;durP1;ratioP1;P1;durP2;ratioP2;P2;SDS_P1;SDS_P2;PMS_P1;PMS_P2;Temp;Humidity;BMP_temperature;BMP_pressure;BME280_temperature;BME280_humidity;BME280_pressure;Samples;Min_cycle;Max_cycle;Signal;HPM_P1;HPM_P2
2022/08/30 00:01:31;;;;;;;7.88;6.20;;;;;;;16.02;92.92;68549.25;4908190;29;20432;-77
2022/08/30 00:03:58;;;;;;;6.65;5.85;;;;;;;15.97;92.87;68548.91;4912082;29;20043;-78
2022/08/30 00:06:25;;;;;;;9.55;6.65;;;;;;;15.90;94.17;68535.00;4912980;29;20493;-78
2022/08/30 00:08:52;;;;;;;8.40;6.45;;;;;;;15.87;93.71;68537.50;4914745;29;20055;-78
2022/08/30 00:11:23;;;;;;;7.72;6.93;;;;;;;15.83;94.17;68532.41;4912695;29;20139;-78
2022/08/30 00:13:51;;;;;;;9.48;7.45;;;;;;;15.81;94.04;68532.81;4913074;29;20489;-78
2022/08/30 00:16:19;;;;;;;8.73;7.82;;;;;;;15.70;95.21;68518.16;4908265;29;20103;-78
2022/08/30 00:18:44;;;;;;;9.38;7.20;;;;;;;15.70;94.78;68513.34;4913010;29;20047;-78
2022/08/30 00:21:10;;;;;;;9.15;7.50;;;;;;;15.70;94.91;68518.72;4909617;29;20127;-78
2022/08/30 00:23:37;;;;;;;8.73;7.82;;;;;;;15.67;95.33;68514.69;4912537;29;20080;-77
2022/08/30 00:26:02;;;;;;;11.27;8.43;;;;;;;;;;4902602;29;20103;-77
2022/08/30 00:28:27;;;;;;;9.55;8.15;;;;;;;;;;4911829;29;20134;-78
2022/08/30 00:30:53;;;;;;;12.45;8.57;;;;;;;15.58;96.05;68500.22;4890203;29;20082;-78
2022/08/30 00:33:19;;;;;;;9.02;8.13;;;;;;;15.56;95.74;68506.00;4909777;29;20051;-77
2022/08/30 00:35:44;;;;;;;10.63;8.27;;;;;;;;;;4911745;29;20662;-77
2022/08/30 00:38:12;;;;;;;10.13;8.38;;;;;;;15.54;95.66;68501.03;4911293;29;20052;-77
2022/08/30 00:40:38;;;;;;;10.63;9.10;;;;;;;15.47;96.82;68487.69;4903462;29;20461;-77
2022/08/30 00:43:08;;;;;;;11.63;9.18;;;;;;;15.45;97.46;68493.47;4882528;29;20136;-77
2022/08/30 00:45:36;;;;;;;10.93;9.20;;;;;;;15.42;97.42;68487.38;4905878;29;20044;-77
2022/08/30 00:48:02;;;;;;;10.25;8.90;;;;;;;15.42;97.29;68486.78;4904729;29;20056;-77
2022/08/30 00:50:31;;;;;;;11.25;9.73;;;;;;;;;;4916026;29;20036;-77
2022/08/30 00:53:00;;;;;;;10.60;9.48;;;;;;;15.38;97.10;68477.44;4895039;29;20139;-77
2022/08/30 00:55:26;;;;;;;11.20;9.85;;;;;;;15.30;98.28;68465.63;4902721;29;20139;-77
2022/08/30 00:57:55;;;;;;;13.15;9.52;;;;;;;;;;4907825;29;20416;-77
2022/08/30 01:00:20;;;;;;;12.63;10.23;;;;;;;15.26;98.49;68463.78;4885178;29;20044;-77
2022/08/30 01:02:47;;;;;;;11.70;10.43;;;;;;;15.23;99.32;68460.34;4904230;29;20035;-77
2022/08/30 01:05:13;;;;;;;14.10;10.57;;;;;;;15.25;98.40;68468.00;4910370;29;20084;-77
2022/08/30 01:07:40;;;;;;;13.48;10.80;;;;;;;15.18;99.19;68455.22;4907581;29;20168;-77
2022/08/30 01:10:08;;;;;;;11.45;10.07;;;;;;;15.15;99.25;68456.59;4913485;29;20646;-77
2022/08/30 01:12:35;;;;;;;14.57;11.07;;;;;;;15.11;99.03;68453.19;4907176;29;20736;-77
2022/08/30 01:15:02;;;;;;;12.63;11.18;;;;;;;15.04;98.99;68445.22;4910112;29;20048;-77
2022/08/30 01:17:27;;;;;;;12.75;11.43;;;;;;;;;;4906985;29;20135;-77
2022/08/30 01:19:59;;;;;;;15.38;11.82;;;;;;;14.96;99.64;68436.13;4909037;29;22957;-78
2022/08/30 01:22:33;;;;;;;12.85;11.45;;;;;;;;;;4910433;29;20489;-77
2022/08/30 01:25:01;;;;;;;15.68;11.60;;;;;;;14.87;99.92;68425.84;4912682;29;20048;-77
2022/08/30 01:27:28;;;;;;;14.23;12.18;;;;;;;14.81;100.00;68419.59;4910846;29;20075;-77
2022/08/30 01:29:54;;;;;;;16.17;12.27;;;;;;;14.79;99.74;68419.44;4912779;29;20046;-77
2022/08/30 01:32:26;;;;;;;14.48;12.60;;;;;;;14.72;100.00;68403.97;4912427;29;20056;-77
2022/08/30 01:34:51;;;;;;;15.63;12.40;;;;;;;14.69;99.97;68405.34;4913689;29;20044;-77
2022/08/30 01:37:26;;;;;;;14.13;12.57;;;;;;;14.66;100.00;68402.50;4911713;29;20522;-77
2022/08/30 01:39:51;;;;;;;14.45;12.95;;;;;;;14.56;100.00;68391.69;4914628;29;20108;-77
2022/08/30 01:42:17;;;;;;;15.65;12.45;;;;;;;14.49;100.00;68386.38;4910808;29;20695;-78
2022/08/30 01:44:42;;;;;;;15.60;13.07;;;;;;;;;;4909130;29;20036;-77
2022/08/30 01:47:08;;;;;;;16.23;13.00;;;;;;;14.51;100.00;68385.97;4911149;29;20500;-77
2022/08/30 01:49:33;;;;;;;15.35;13.07;;;;;;;14.48;100.00;68377.22;4911809;29;20625;-78
2022/08/30 01:51:59;;;;;;;16.67;14.00;;;;;;;14.46;100.00;68374.94;4911161;29;20063;-77
2022/08/30 01:54:24;;;;;;;15.38;12.35;;;;;;;;;;4895349;29;20047;-78
2022/08/30 01:56:49;;;;;;;17.70;13.90;;;;;;;14.46;100.00;68380.28;4911061;29;20134;-77
2022/08/30 01:59:15;;;;;;;15.35;13.52;;;;;;;14.45;100.00;68373.81;4911303;29;20367;-77
2022/08/30 02:01:41;;;;;;;17.40;14.05;;;;;;;;;;4911231;29;20059;-77
2022/08/30 02:04:07;;;;;;;16.13;14.07;;;;;;;;;;4880778;29;20056;-77
2022/08/30 02:06:32;;;;;;;16.33;13.55;;;;;;;;;;4879794;29;20093;-77
2022/08/30 02:08:58;;;;;;;17.48;14.90;;;;;;;;;;4880045;29;20073;-78
2022/08/30 02:11:24;;;;;;;18.52;15.77;;;;;;;14.33;100.00;68365.50;4891747;29;20405;-77
2022/08/30 02:13:49;;;;;;;16.67;14.45;;;;;;;;;;4893379;29;20040;-77
2022/08/30 02:16:17;;;;;;;18.67;15.32;;;;;;;14.35;100.00;68367.75;4890780;29;20048;-77
2022/08/30 02:18:44;;;;;;;17.15;14.63;;;;;;;14.33;100.00;68360.72;4893429;29;20569;-77
2022/08/30 02:21:09;;;;;;;16.80;14.90;;;;;;;14.30;100.00;68362.06;4891213;29;20056;-77
2022/08/30 02:23:35;;;;;;;17.02;14.57;;;;;;;14.34;100.00;68366.63;4892434;29;20048;-77
2022/08/30 02:26:00;;;;;;;16.02;13.85;;;;;;;;;;4890301;29;20041;-77
2022/08/30 02:28:26;;;;;;;17.10;15.05;;;;;;;14.28;100.00;68362.47;4894769;29;20043;-77
2022/08/30 02:30:51;;;;;;;20.48;15.23;;;;;;;;;;4891522;29;20033;-78
2022/08/30 02:33:17;;;;;;;17.08;14.77;;;;;;;14.26;100.00;68357.53;4892338;29;20054;-77
2022/08/30 02:35:43;;;;;;;15.90;13.52;;;;;;;14.29;100.00;68363.63;4891035;29;20385;-77
2022/08/30 02:38:09;;;;;;;16.30;13.73;;;;;;;14.23;100.00;68354.69;4893908;29;20052;-77
2022/08/30 02:40:34;;;;;;;16.48;13.82;;;;;;;14.28;100.00;68359.81;4888761;29;20124;-77
2022/08/30 02:43:00;;;;;;;14.93;13.18;;;;;;;14.23;100.00;68354.69;4886076;29;20450;-77
2022/08/30 02:45:26;;;;;;;17.48;12.93;;;;;;;14.17;100.00;68348.41;4889192;29;20661;-77
2022/08/30 02:47:51;;;;;;;15.32;13.20;;;;;;;;;;4891590;29;20039;-77
2022/08/30 02:50:17;;;;;;;15.02;12.80;;;;;;;14.10;100.00;68339.91;4891991;29;20674;-78
2022/08/30 02:52:43;;;;;;;16.92;13.30;;;;;;;14.10;100.00;68335.09;4891369;29;20084;-77
2022/08/30 02:55:09;;;;;;;17.60;13.77;;;;;;;14.13;100.00;68343.31;4892861;29;20041;-77
2022/08/30 02:57:36;;;;;;;17.05;12.88;;;;;;;14.11;100.00;68344.25;4884793;29;20519;-77
2022/08/30 03:00:05;;;;;;;17.27;13.38;;;;;;;14.10;100.00;68345.25;4891601;29;20051;-77
2022/08/30 03:02:30;;;;;;;16.33;13.90;;;;;;;14.09;100.00;68339.31;4889633;29;20051;-77
2022/08/30 03:04:56;;;;;;;14.63;12.68;;;;;;;14.11;100.00;68341.59;4889211;29;20037;-78
2022/08/30 03:07:21;;;;;;;15.02;12.43;;;;;;;14.08;100.00;68338.19;4893031;29;20044;-78
2022/08/30 03:09:47;;;;;;;13.32;11.93;;;;;;;14.10;100.00;68340.47;4889621;29;20523;-78
2022/08/30 03:12:12;;;;;;;13.93;11.82;;;;;;;14.08;100.00;68338.19;4885817;29;20052;-77
2022/08/30 03:14:38;;;;;;;13.60;10.75;;;;;;;;;;4901120;29;20468;-77
2022/08/30 03:17:08;;;;;;;13.27;11.35;;;;;;;14.03;100.00;68327.13;4873817;29;20136;-77
2022/08/30 03:19:35;;;;;;;12.05;10.45;;;;;;;;;;4893618;29;20045;-78
2022/08/30 03:22:00;;;;;;;14.93;10.95;;;;;;;14.03;100.00;68334.59;4890445;29;20052;-78
2022/08/30 03:24:26;;;;;;;13.43;10.88;;;;;;;;;;4894808;29;20028;-77
2022/08/30 03:26:52;;;;;;;13.10;11.52;;;;;;;;;;4899513;29;20075;-78
2022/08/30 03:29:17;;;;;;;13.10;11.73;;;;;;;;;;4889212;29;20047;-78
2022/08/30 03:31:42;;;;;;;13.70;11.88;;;;;;;14.05;100.00;68334.19;4894412;29;20052;-78
2022/08/30 03:34:09;;;;;;;13.25;11.38;;;;;;;;;;4872733;29;20076;-77
2022/08/30 03:36:37;;;;;;;13.80;12.30;;;;;;;14.00;100.00;68331.75;4874283;29;20045;-78
2022/08/30 03:39:04;;;;;;;12.32;10.40;;;;;;;13.98;100.00;68327.38;4885853;29;20075;-78
2022/08/30 03:41:31;;;;;;;13.55;12.05;;;;;;;;;;4899347;29;20096;-78
2022/08/30 03:43:57;;;;;;;15.55;10.82;;;;;;;13.90;100.00;68320.38;4895376;29;20055;-78
2022/08/30 03:46:22;;;;;;;12.13;10.68;;;;;;;13.86;100.00;68313.13;4895890;29;20040;-78
2022/08/30 03:48:47;;;;;;;13.43;11.48;;;;;;;13.80;100.00;68306.88;4895769;29;20635;-77
2022/08/30 03:51:13;;;;;;;13.70;11.90;;;;;;;13.77;100.00;68298.69;4906017;29;20036;-77
2022/08/30 03:53:38;;;;;;;13.27;11.50;;;;;;;13.78;100.00;68304.59;4915067;29;20184;-78
2022/08/30 03:56:04;;;;;;;15.40;11.38;;;;;;;13.70;100.00;68301.44;4915327;29;20191;-77
2022/08/30 03:58:29;;;;;;;14.30;12.18;;;;;;;13.70;100.00;68296.06;4884237;29;20917;-77
2022/08/30 04:00:54;;;;;;;15.20;12.07;;;;;;;13.72;100.00;68298.34;4898151;29;20043;-77
2022/08/30 04:03:24;;;;;;;13.95;12.27;;;;;;;;;;4892634;29;20043;-77
2022/08/30 04:05:50;;;;;;;15.88;12.55;;;;;;;;;;4894904;29;20127;-77
2022/08/30 04:08:15;;;;;;;14.48;12.45;;;;;;;;;;4911729;29;20135;-77
2022/08/30 04:10:40;;;;;;;16.10;12.15;;;;;;;13.65;100.00;68289.81;4904420;29;20059;-77
2022/08/30 04:13:06;;;;;;;16.75;12.95;;;;;;;13.64;100.00;68288.69;4912126;29;20385;-77
2022/08/30 04:15:31;;;;;;;16.40;12.05;;;;;;;13.57;100.00;68283.97;4888577;29;20055;-77
2022/08/30 04:17:56;;;;;;;16.98;13.30;;;;;;;;;;4911731;29;20047;-77
2022/08/30 04:20:22;;;;;;;14.38;12.45;;;;;;;13.58;100.00;68277.09;4910997;29;20404;-77
2022/08/30 04:22:47;;;;;;;15.65;12.65;;;;;;;;;;4911936;29;20042;-78
2022/08/30 04:25:12;;;;;;;15.48;13.82;;;;;;;13.54;100.00;68281.09;4912268;29;20044;-78
2022/08/30 04:27:38;;;;;;;15.77;12.55;;;;;;;13.54;100.00;68277.88;4913425;29;20095;-78
2022/08/30 04:30:04;;;;;;;15.10;12.85;;;;;;;;;;4908141;29;20112;-78
2022/08/30 04:32:29;;;;;;;13.52;11.73;;;;;;;13.51;100.00;68269.69;4908992;29;20068;-78
2022/08/30 04:34:56;;;;;;;15.88;13.05;;;;;;;;;;4916001;29;20050;-79
2022/08/30 04:37:21;;;;;;;14.75;12.20;;;;;;;13.49;100.00;68272.19;4914412;29;20067;-79
2022/08/30 04:39:47;;;;;;;15.60;11.80;;;;;;;13.49;100.00;68272.19;4909700;29;20044;-78
2022/08/30 04:42:13;;;;;;;14.30;11.45;;;;;;;13.45;100.00;68267.63;4915303;29;20043;-78
2022/08/30 04:44:38;;;;;;;14.00;11.57;;;;;;;13.42;100.00;68264.78;4899229;29;20048;-79
2022/08/30 04:47:03;;;;;;;14.75;12.25;;;;;;;13.38;100.00;68254.91;4912039;29;20059;-77
2022/08/30 04:49:31;;;;;;;16.33;13.90;;;;;;;;;;4911731;29;20492;-80
2022/08/30 04:51:56;;;;;;;16.08;12.75;;;;;;;13.36;100.00;68257.97;4894600;29;20060;-80
2022/08/30 04:54:21;;;;;;;15.70;14.05;;;;;;;13.35;100.00;68256.25;4912341;29;20100;-80
2022/08/30 04:56:47;;;;;;;15.95;12.73;;;;;;;13.35;100.00;68256.25;4887406;29;20033;-79
2022/08/30 04:59:12;;;;;;;14.05;12.65;;;;;;;13.38;100.00;68259.66;4912675;29;20484;-79
2022/08/30 05:01:38;;;;;;;13.77;11.27;;;;;;;13.39;100.00;68261.38;4918637;29;20674;-76
2022/08/30 05:04:03;;;;;;;13.73;11.23;;;;;;;13.37;100.00;68258.53;4912053;29;20094;-78
2022/08/30 05:06:30;;;;;;;13.52;12.13;;;;;;;13.37;100.00;68261.22;4914544;29;20591;-79
2022/08/30 05:08:55;;;;;;;14.38;11.38;;;;;;;13.42;100.00;68264.22;4911107;29;20056;-80
2022/08/30 05:11:22;;;;;;;14.35;11.90;;;;;;;13.41;100.00;68263.09;4913890;29;20047;-78
2022/08/30 05:13:48;;;;;;;12.73;11.07;;;;;;;13.48;100.00;68271.03;4915752;29;20148;-78
2022/08/30 05:16:16;;;;;;;13.30;11.85;;;;;;;13.49;100.00;68272.19;4912756;29;20138;-80
2022/08/30 05:18:43;;;;;;;12.48;10.95;;;;;;;13.52;100.00;68281.53;4910120;29;20111;-79
2022/08/30 05:21:18;;;;;;;12.98;9.45;;;;;;;13.53;100.00;68276.75;4913192;29;20138;-78
2022/08/30 05:23:44;;;;;;;14.70;11.07;;;;;;;13.53;100.00;68279.97;4903474;29;20076;-79
2022/08/30 05:26:22;;;;;;;12.05;10.13;;;;;;;13.57;100.00;68280.72;4911141;29;20390;-77
2022/08/30 05:28:48;;;;;;;14.85;10.38;;;;;;;13.56;100.00;68272.13;4877967;29;20040;-78
2022/08/30 05:31:13;;;;;;;11.65;10.25;;;;;;;13.58;100.00;68284.53;4914739;29;20101;-79
2022/08/30 05:33:38;;;;;;;11.18;9.90;;;;;;;;;;4908377;29;20040;-79
2022/08/30 05:36:08;;;;;;;12.63;10.00;;;;;;;13.66;100.00;68290.94;4913986;29;20040;-79
2022/08/30 05:38:34;;;;;;;12.15;9.60;;;;;;;13.68;100.00;68296.47;4910859;29;20631;-78
2022/08/30 05:40:59;;;;;;;11.55;9.20;;;;;;;13.74;100.00;68300.63;4913662;29;20122;-78
2022/08/30 05:43:24;;;;;;;12.15;9.93;;;;;;;13.81;100.00;68307.44;4911526;29;20401;-79
2022/08/30 05:45:58;;;;;;;10.07;8.10;;;;;;;13.81;100.00;68302.09;4918328;29;20036;-79
2022/08/30 05:48:23;;;;;;;10.30;9.20;;;;;;;;;;4909984;29;20052;-79
2022/08/30 05:50:49;;;;;;;11.88;9.27;;;;;;;13.93;100.00;68321.13;4910839;29;20063;-78
2022/08/30 05:53:14;;;;;;;10.32;8.52;;;;;;;13.97;100.00;68325.66;4915861;29;20063;-79
2022/08/30 05:55:40;;;;;;;11.23;8.32;;;;;;;;;;4914753;29;20048;-80
2022/08/30 05:58:05;;;;;;;10.23;7.97;;;;;;;14.08;100.00;68337.59;4892668;29;20618;-78
2022/08/30 06:00:30;;;;;;;10.70;7.85;;;;;;;14.15;100.00;68348.81;4895469;29;20048;-79
2022/08/30 06:02:56;;;;;;;9.30;7.40;;;;;;;14.22;100.00;68356.22;4899012;29;20051;-78
2022/08/30 06:05:21;;;;;;;11.90;7.28;;;;;;;14.31;100.00;68363.22;4901842;29;20036;-78
2022/08/30 06:07:48;;;;;;;7.85;6.78;;;;;;;14.36;100.00;68363.56;4917551;29;20048;-78
2022/08/30 06:10:13;;;;;;;9.65;7.10;;;;;;;;;;4916484;29;20040;-79
2022/08/30 06:12:39;;;;;;;8.73;6.78;;;;;;;14.52;100.00;68389.81;4896603;29;20565;-79
2022/08/30 06:15:05;;;;;;;8.07;6.10;;;;;;;14.59;100.00;68389.75;4891857;29;20048;-81
2022/08/30 06:17:30;;;;;;;8.05;5.70;;;;;;;;;;4891386;29;20064;-79
2022/08/30 06:19:56;;;;;;;6.28;5.45;;;;;;;;;;4907320;29;20140;-79
2022/08/30 06:22:21;;;;;;;7.22;5.35;;;;;;;14.81;98.95;68414.22;4887257;29;20044;-78
2022/08/30 06:24:46;;;;;;;8.45;5.40;;;;;;;14.91;98.86;68433.09;4891265;29;20382;-79
2022/08/30 06:27:12;;;;;;;5.85;4.85;;;;;;;;;;4886808;29;20040;-80
2022/08/30 06:29:37;;;;;;;7.57;4.95;;;;;;;;;;4885780;29;20060;-79
2022/08/30 06:32:03;;;;;;;6.95;5.03;;;;;;;15.17;97.17;68454.09;4896141;29;20071;-80
2022/08/30 06:34:28;;;;;;;6.88;4.07;;;;;;;15.22;96.28;68464.56;4896928;29;20048;-80
2022/08/30 06:36:53;;;;;;;7.00;4.25;;;;;;;15.33;95.76;68477.09;4892688;29;20052;-79
2022/08/30 06:39:19;;;;;;;4.70;3.83;;;;;;;15.38;95.10;68482.81;4894023;29;20452;-78
2022/08/30 06:41:44;;;;;;;5.72;3.95;;;;;;;;;;4891208;29;20068;-79
2022/08/30 06:44:09;;;;;;;6.87;4.50;;;;;;;15.64;94.20;68505.91;4890516;29;20044;-79
2022/08/30 06:46:37;;;;;;;7.90;4.05;;;;;;;15.73;93.31;68513.50;4895459;29;20293;-79
2022/08/30 06:49:03;;;;;;;6.22;3.67;;;;;;;;;;4889619;29;20039;-79
2022/08/30 06:51:30;;;;;;;4.85;3.42;;;;;;;;;;4893746;29;20049;-79
2022/08/30 06:53:57;;;;;;;4.85;3.13;;;;;;;15.99;92.13;68550.63;4892148;29;20520;-79
2022/08/30 06:56:23;;;;;;;4.43;2.80;;;;;;;16.08;91.62;68555.50;4889492;29;20158;-79
2022/08/30 06:58:49;;;;;;;5.47;3.00;;;;;;;16.22;90.99;68576.25;4893873;29;20045;-79
2022/08/30 07:01:17;;;;;;;5.25;2.85;;;;;;;16.30;90.29;68580.00;4890317;29;20048;-79
2022/08/30 07:03:42;;;;;;;5.32;2.60;;;;;;;;;;4912187;29;20448;-79
2022/08/30 07:06:09;;;;;;;4.07;2.45;;;;;;;16.53;89.26;68605.09;4911664;29;20036;-79
2022/08/30 07:08:35;;;;;;;5.35;2.60;;;;;;;16.61;88.09;68614.22;4912473;29;20085;-79
2022/08/30 07:11:01;;;;;;;5.05;2.63;;;;;;;16.66;87.20;68625.31;4910542;29;20107;-79
2022/08/30 07:13:27;;;;;;;4.55;2.15;;;;;;;;;;4912211;29;20040;-79
2022/08/30 07:15:53;;;;;;;4.05;2.40;;;;;;;16.80;85.77;68633.22;4915023;29;20048;-79
2022/08/30 07:21:08;;;;;;;5.70;2.20;;;;;;;;;;4914341;29;20103;-78
2022/08/30 07:23:34;;;;;;;3.60;2.00;;;;;;;16.99;84.48;68662.38;4914600;29;20436;-77
2022/08/30 07:26:01;;;;;;;4.13;2.00;;;;;;;;;;4914522;29;20127;-79
2022/08/30 07:28:27;;;;;;;3.88;2.17;;;;;;;17.20;83.46;68680.38;4913267;29;20052;-79
2022/08/30 07:30:52;;;;;;;4.85;2.00;;;;;;;;;;4914188;29;20055;-80
2022/08/30 07:33:17;;;;;;;6.55;2.38;;;;;;;17.33;83.09;68695.22;4914782;29;20048;-79
2022/08/30 07:35:43;;;;;;;9.00;2.17;;;;;;;17.41;81.93;68708.59;4914925;29;20381;-79
2022/08/30 07:38:13;;;;;;;3.65;1.92;;;;;;;17.48;80.90;68717.16;4914868;29;20055;-79
2022/08/30 07:40:38;;;;;;;4.78;1.98;;;;;;;17.55;80.99;68719.75;4899313;29;20051;-80
2022/08/30 07:43:04;;;;;;;4.25;1.70;;;;;;;17.65;80.24;68727.34;4915409;29;20040;-79
2022/08/30 07:45:29;;;;;;;2.75;1.65;;;;;;;17.78;79.93;68750.25;4915985;29;20127;-79
2022/08/30 07:47:56;;;;;;;3.00;1.75;;;;;;;17.91;79.02;68759.72;4917988;29;20044;-79
2022/08/30 07:50:22;;;;;;;4.60;1.75;;;;;;;;;;4917282;29;20044;-79
2022/08/30 07:52:47;;;;;;;5.93;1.70;;;;;;;17.85;77.98;68752.88;4912791;29;20164;-79
2022/08/30 07:55:12;;;;;;;5.85;1.75;;;;;;;17.87;78.50;68755.16;4926503;23;20051;-82
2022/08/30 07:57:38;;;;;;;3.60;1.50;;;;;;;17.88;77.89;68755.72;4893932;29;20128;-79
2022/08/30 08:00:05;;;;;;;5.60;1.50;;;;;;;18.01;77.20;68770.53;4889670;29;20589;-75
2022/08/30 08:02:31;;;;;;;3.38;1.30;;;;;;;18.09;76.68;68779.69;4892252;29;20448;-77
2022/08/30 08:04:57;;;;;;;2.67;1.35;;;;;;;18.21;76.05;68793.41;4877876;29;20040;-76
2022/08/30 08:07:22;;;;;;;2.28;1.20;;;;;;;;;;4890591;29;20044;-79
2022/08/30 08:09:47;;;;;;;4.68;1.20;;;;;;;18.41;74.84;68815.66;4893200;29;20055;-75
2022/08/30 08:12:13;;;;;;;2.65;1.48;;;;;;;18.55;73.86;68836.44;4889759;29;20144;-79
2022/08/30 08:14:40;;;;;;;3.58;1.35;;;;;;;;;;4889954;29;20523;-79
2022/08/30 08:17:05;;;;;;;2.55;1.10;;;;;;;18.76;72.40;68859.91;4900927;29;20056;-77
2022/08/30 08:19:30;;;;;;;2.47;1.15;;;;;;;18.84;72.48;68863.06;4890745;29;20079;-79
2022/08/30 08:21:59;;;;;;;4.85;1.55;;;;;;;18.90;72.19;68870.50;4890197;29;20048;-77
2022/08/30 08:24:28;;;;;;;5.38;1.65;;;;;;;19.02;71.94;68889.03;4882266;29;20124;-76
2022/08/30 08:26:53;;;;;;;;;;;;;;;19.06;70.66;68887.63;4878338;29;20075;-78
2022/08/30 08:29:18;;;;;;;3.58;1.25;;;;;;;;;;4871012;29;20562;-75
2022/08/30 08:31:45;;;;;;;4.43;1.10;;;;;;;;;;4869474;29;20052;-76
2022/08/30 08:34:11;;;;;;;4.15;1.60;;;;;;;;;;4888601;29;20292;-80
2022/08/30 08:36:36;;;;;;;6.82;1.35;;;;;;;19.07;68.77;68889.31;4886364;29;20420;-76
2022/08/30 08:39:04;;;;;;;4.00;1.20;;;;;;;19.19;68.53;68901.91;4886592;29;20060;-78
2022/08/30 08:41:47;;;;;;;3.58;1.17;;;;;;;;;;4887224;29;20512;-80
2022/08/30 08:44:24;;;;;;;3.08;1.30;;;;;;;;;;4892631;29;20044;-76
2022/08/30 08:47:05;;;;;;;3.80;1.20;;;;;;;;;;4887217;29;20048;-78
2022/08/30 08:49:34;;;;;;;4.93;1.00;;;;;;;19.34;68.22;68916.34;4893110;29;20052;-76
2022/08/30 08:55:13;;;;;;;3.03;1.35;;;;;;;;;;4889817;29;20116;-77
2022/08/30 08:57:38;;;;;;;3.58;1.42;;;;;;;19.34;66.95;68916.91;4862591;29;20048;-77
2022/08/30 09:00:07;;;;;;;3.13;1.10;;;;;;;19.45;65.63;68931.63;4875816;29;20053;-77
2022/08/30 09:02:42;;;;;;;6.80;1.33;;;;;;;19.66;65.88;68959.88;4883204;29;20128;-80
2022/08/30 09:05:07;;;;;;;5.25;1.30;;;;;;;;;;4878541;29;20048;-77
2022/08/30 09:07:37;;;;;;;8.18;1.38;;;;;;;19.95;63.92;68982.22;4878920;29;20056;-76
2022/08/30 09:10:04;;;;;;;4.68;1.20;;;;;;;19.93;63.65;68985.34;4872877;29;20506;-78
2022/08/30 09:12:30;;;;;;;4.38;1.40;;;;;;;19.91;62.31;68983.06;4883373;29;20493;-77
2022/08/30 09:15:03;;;;;;;3.03;1.10;;;;;;;20.00;62.85;68998.75;4870016;29;20118;-76
2022/08/30 09:17:28;;;;;;;2.08;0.88;;;;;;;20.23;62.87;69018.50;4876155;29;20049;-76
2022/08/30 09:19:54;;;;;;;3.30;1.27;;;;;;;20.24;62.29;69016.94;4879474;29;20413;-77
2022/08/30 09:22:31;;;;;;;3.58;1.25;;;;;;;20.37;61.54;69033.91;4889492;29;20068;-77
2022/08/30 09:25:05;;;;;;;4.47;1.23;;;;;;;20.41;61.23;69033.66;4874593;29;20055;-80
2022/08/30 09:27:33;;;;;;;3.13;1.30;;;;;;;20.40;60.50;69037.94;4886569;29;20124;-76
2022/08/30 09:30:09;;;;;;;3.13;1.27;;;;;;;20.38;60.37;69035.66;4890442;29;20053;-77
2022/08/30 09:32:41;;;;;;;4.53;1.10;;;;;;;20.58;60.70;69057.97;4864088;29;20041;-77
2022/08/30 09:35:18;;;;;;;3.25;1.30;;;;;;;20.69;58.99;69069.97;4891800;29;20461;-77
2022/08/30 09:37:52;;;;;;;3.00;0.95;;;;;;;20.69;59.53;69067.28;4892841;29;20048;-77
2022/08/30 09:40:35;;;;;;;3.55;1.08;;;;;;;20.72;58.73;69073.41;4892565;29;20036;-77
2022/08/30 09:43:08;;;;;;;4.72;1.20;;;;;;;20.85;58.98;69079.59;4873194;29;20048;-77
2022/08/30 09:45:35;;;;;;;4.15;0.90;;;;;;;;;;4889223;29;20586;-76
2022/08/30 09:48:19;;;;;;;5.50;1.40;;;;;;;21.13;58.55;69119.16;4891187;29;20052;-76
2022/08/30 09:50:50;;;;;;;4.45;0.90;;;;;;;21.27;58.18;69132.47;4891339;29;20455;-79
2022/08/30 09:53:23;;;;;;;3.05;1.23;;;;;;;21.18;55.91;69125.47;4891785;29;20721;-79
2022/08/30 09:55:54;;;;;;;3.80;1.15;;;;;;;;;;4872735;29;20053;-78
2022/08/30 09:58:35;;;;;;;3.53;1.02;;;;;;;21.18;56.26;69124.88;4906479;29;20040;-79
2022/08/30 10:01:09;;;;;;;4.18;1.35;;;;;;;21.34;56.45;69140.47;4909798;29;20044;-77
2022/08/30 10:04:12;;;;;;;2.20;1.02;;;;;;;21.34;55.31;69139.91;4884595;29;20128;-76
2022/08/30 10:06:48;;;;;;;4.85;1.20;;;;;;;21.45;54.47;69152.50;4875355;29;20428;-76
2022/08/30 10:09:19;;;;;;;4.00;1.20;;;;;;;21.58;54.49;69169.53;4885728;29;20044;-79
2022/08/30 10:12:17;;;;;;;3.00;1.30;;;;;;;21.68;53.90;69180.97;4877806;29;20041;-77
2022/08/30 10:15:01;;;;;;;3.30;1.38;;;;;;;21.57;53.50;69168.38;4880904;29;20059;-80
2022/08/30 10:17:37;;;;;;;2.90;1.27;;;;;;;21.72;52.96;69184.97;4879463;29;20522;-77
2022/08/30 10:20:22;;;;;;;2.78;0.90;;;;;;;21.82;54.04;69193.72;4877468;29;20055;-80
2022/08/30 10:22:59;;;;;;;4.30;1.10;;;;;;;22.01;52.97;69215.47;4883727;29;20045;-76
2022/08/30 10:25:31;;;;;;;2.20;1.02;;;;;;;22.29;53.88;69246.97;4883146;29;20433;-81
2022/08/30 10:28:05;;;;;;;3.70;1.13;;;;;;;22.40;51.63;69261.69;4887484;29;20048;-80
2022/08/30 10:30:35;;;;;;;3.30;1.20;;;;;;;22.19;50.83;69237.66;4883676;29;20712;-80
2022/08/30 10:33:27;;;;;;;2.13;1.02;;;;;;;22.14;52.47;69229.19;4874357;29;20045;-77
2022/08/30 10:35:57;;;;;;;3.58;1.30;;;;;;;22.21;52.45;69237.22;4847976;29;20053;-77
2022/08/30 10:38:33;;;;;;;4.05;1.05;;;;;;;22.44;52.52;69263.00;4891393;29;20052;-76
2022/08/30 10:41:17;;;;;;;5.00;1.17;;;;;;;22.42;52.28;69260.72;4860412;29;20044;-76
2022/08/30 10:44:29;;;;;;;4.72;1.40;;;;;;;22.22;51.93;69236.25;4886869;29;20099;-78
2022/08/30 10:47:05;;;;;;;3.15;1.20;;;;;;;22.14;51.22;69232.47;4844777;29;20106;-76
2022/08/30 10:49:48;;;;;;;2.47;1.10;;;;;;;22.11;51.77;69229.03;4832348;29;20053;-81
2022/08/30 10:52:25;;;;;;;5.43;1.15;;;;;;;22.35;49.76;69252.69;4867037;29;20052;-79
2022/08/30 10:55:17;;;;;;;4.25;1.45;;;;;;;22.44;50.48;69266.28;4873971;29;20565;-76
2022/08/30 10:57:44;;;;;;;6.03;1.67;;;;;;;22.41;51.52;69260.16;4858950;29;20127;-77
2022/08/30 11:00:35;;;;;;;2.55;1.13;;;;;;;22.48;51.78;69270.28;4873999;29;20197;-78
2022/08/30 11:03:10;;;;;;;2.83;1.00;;;;;;;22.42;50.98;69260.72;4890610;29;20073;-76
2022/08/30 11:05:56;;;;;;;3.30;1.13;;;;;;;22.55;50.86;69275.03;4868198;29;20045;-79
2022/08/30 11:09:01;;;;;;;4.53;0.98;;;;;;;22.67;49.36;69291.47;4874344;29;20433;-78
2022/08/30 11:11:46;;;;;;;4.00;1.38;;;;;;;;;;4864898;29;20108;-79
2022/08/30 11:14:16;;;;;;;2.72;1.13;;;;;;;22.49;51.22;69272.00;4841704;29;20124;-78
2022/08/30 11:16:45;;;;;;;3.63;1.00;;;;;;;22.93;50.36;69315.25;4890846;29;20053;-83
2022/08/30 11:19:16;;;;;;;4.45;1.58;;;;;;;23.30;49.08;69359.22;4873667;29;20069;-77
2022/08/30 11:21:43;;;;;;;2.22;0.90;;;;;;;23.23;48.35;69354.50;4893750;29;20040;-81
2022/08/30 11:24:12;;;;;;;3.53;1.20;;;;;;;23.20;47.19;69348.91;4877446;29;20041;-78
2022/08/30 11:26:43;;;;;;;4.13;1.20;;;;;;;23.00;48.27;69326.00;4892419;29;20041;-80
2022/08/30 11:29:28;;;;;;;1.85;1.00;;;;;;;23.27;47.32;69358.50;4875734;29;20063;-78
2022/08/30 11:31:59;;;;;;;3.22;1.10;;;;;;;23.20;47.60;69346.22;4891214;29;20079;-78
2022/08/30 11:34:43;;;;;;;5.13;1.20;;;;;;;23.36;47.85;69366.09;4891945;29;20064;-78
2022/08/30 11:37:10;;;;;;;3.33;1.08;;;;;;;23.67;46.72;69397.78;4890593;29;20045;-78
2022/08/30 11:39:48;;;;;;;4.80;1.20;;;;;;;23.78;46.71;69413.69;4892834;29;20135;-78
2022/08/30 11:42:40;;;;;;;4.80;1.10;;;;;;;23.74;47.04;69411.25;4886176;29;20051;-81
2022/08/30 11:45:23;;;;;;;2.58;1.00;;;;;;;23.83;46.01;69422.13;4861236;29;20115;-77
2022/08/30 11:47:53;;;;;;;3.20;1.00;;;;;;;23.83;46.75;69421.56;4885781;29;20057;-79
2022/08/30 11:50:28;;;;;;;3.42;1.08;;;;;;;23.76;46.43;69413.53;4878318;29;20591;-82
2022/08/30 11:53:23;;;;;;;2.72;0.95;;;;;;;23.73;47.27;69410.09;4874274;29;20362;-79
2022/08/30 11:56:26;;;;;;;3.28;1.60;;;;;;;23.77;46.65;69414.69;4889200;29;20337;-78
2022/08/30 11:59:01;;;;;;;3.92;1.30;;;;;;;23.92;46.80;69428.59;4884613;29;20120;-78
2022/08/30 12:01:26;;;;;;;3.30;0.77;;;;;;;23.97;45.86;69434.34;4893573;29;20452;-77
2022/08/30 12:04:25;;;;;;;4.00;1.02;;;;;;;24.23;45.71;69464.13;4875617;29;20037;-78
2022/08/30 12:06:52;;;;;;;5.95;1.50;;;;;;;24.43;44.31;69483.22;4898704;29;20052;-79
2022/08/30 12:09:24;;;;;;;2.08;0.90;;;;;;;24.16;45.41;69453.38;4892220;29;20045;-77
2022/08/30 12:11:57;;;;;;;3.72;1.20;;;;;;;24.18;45.18;69461.13;4889572;29;20112;-77